Time;durP1;ratioP1;P1;durP2;ratioP2;P2;SDS_P1;SDS_P2;PMS_P1;PMS_P2;Temp;Humidity;BMP_temperature;BMP_pressure;BME280_temperature;BME280_humidity;BME280_pressure;Samples;Min_cycle;Max_cycle;Signal;HPM_P1;HPM_P2
2022/05/16 00:00:09;;;;;;;1.40;0.30;;;27.40;46.70;;;;;;5084997;28;20072;-51
2022/05/16 00:02:40;;;;;;;0.70;0.10;;;27.30;46.90;;;;;;5087351;28;20051;-50
2022/05/16 00:05:08;;;;;;;5.10;0.20;;;27.10;46.90;;;;;;5091446;28;20043;-51
2022/05/16 00:07:35;;;;;;;0.65;0.35;;;27.00;47.00;;;;;;5088146;28;20036;-48
2022/05/16 00:10:04;;;;;;;0.68;0.17;;;26.90;47.20;;;;;;5085471;28;20044;-49
2022/05/16 00:12:31;;;;;;;0.20;0.20;;;26.80;47.50;;;;;;5083196;28;20040;-51
2022/05/16 00:14:58;;;;;;;4.32;0.40;;;26.70;48.20;;;;;;5072741;28;20493;-53
2022/05/16 00:17:25;;;;;;;1.38;0.20;;;26.60;49.20;;;;;;5086586;28;20068;-53
2022/05/16 00:19:52;;;;;;;0.88;0.50;;;26.60;49.70;;;;;;5086219;28;20147;-49
2022/05/16 00:22:19;;;;;;;3.60;0.10;;;26.40;50.00;;;;;;5084430;28;20511;-48
2022/05/16 00:24:46;;;;;;;2.47;0.15;;;26.30;50.40;;;;;;5085074;28;20032;-47
2022/05/16 00:27:15;;;;;;;1.65;0.40;;;26.30;50.90;;;;;;5083998;28;20101;-46
2022/05/16 00:29:42;;;;;;;3.45;0.47;;;26.20;51.30;;;;;;5099237;28;20045;-47
2022/05/16 00:32:10;;;;;;;1.67;0.30;;;26.10;51.40;;;;;;5091083;28;20114;-49
2022/05/16 00:34:38;;;;;;;3.22;0.10;;;26.10;51.60;;;;;;5090094;28;20048;-49
2022/05/16 00:37:05;;;;;;;1.75;0.28;;;26.00;52.10;;;;;;5069883;28;20516;-48
2022/05/16 00:39:32;;;;;;;1.45;0.10;;;25.90;52.40;;;;;;5086695;28;20112;-52
2022/05/16 00:42:01;;;;;;;4.80;0.30;;;25.90;52.60;;;;;;5086727;28;20404;-53
2022/05/16 00:44:30;;;;;;;0.25;0.25;;;25.80;52.70;;;;;;5086419;28;20467;-48
2022/05/16 00:46:57;;;;;;;2.97;0.20;;;25.80;52.90;;;;;;5070333;28;20036;-49
2022/05/16 00:49:28;;;;;;;6.45;0.47;;;25.70;52.80;;;;;;5084540;28;20111;-48
2022/05/16 00:51:59;;;;;;;1.88;0.17;;;25.70;53.10;;;;;;5086521;28;20044;-49
2022/05/16 00:54:31;;;;;;;1.75;0.45;;;25.60;53.20;;;;;;5065755;28;20043;-48
2022/05/16 00:57:02;;;;;;;53.85;6.00;;;25.60;53.60;;;;;;5083444;28;20454;-52
2022/05/16 00:59:37;;;;;;;2.72;1.48;;;25.50;54.10;;;;;;5088431;28;20404;-51
2022/05/16 01:04:49;;;;;;;3.92;0.25;;;25.50;53.90;;;;;;5092017;28;20052;-50
2022/05/16 01:07:22;;;;;;;0.85;0.40;;;25.50;53.80;;;;;;5085928;28;20047;-49
2022/05/16 01:09:49;;;;;;;4.32;0.50;;;25.50;53.70;;;;;;5087831;28;20040;-52
2022/05/16 01:12:16;;;;;;;3.13;0.30;;;25.40;53.60;;;;;;5087637;28;20028;-48
2022/05/16 01:14:53;;;;;;;3.55;0.45;;;25.40;53.50;;;;;;5103094;28;20140;-48
2022/05/16 01:17:20;;;;;;;0.35;0.20;;;25.40;53.50;;;;;;5091920;28;20048;-49
2022/05/16 01:19:48;;;;;;;0.50;0.20;;;25.40;53.50;;;;;;5088427;28;20071;-49
2022/05/16 01:22:24;;;;;;;2.47;0.30;;;25.40;53.40;;;;;;5092566;28;20408;-48
2022/05/16 01:24:51;;;;;;;;;;;25.40;53.50;;;;;;5088630;28;20060;-48
2022/05/16 01:27:18;;;;;;;2.33;0.10;;;25.30;53.20;;;;;;5087518;28;19969;-49
2022/05/16 01:29:45;;;;;;;5.15;0.30;;;25.30;53.50;;;;;;5087419;28;20527;-49
2022/05/16 01:32:12;;;;;;;2.88;0.32;;;25.30;53.60;;;;;;5098122;28;20044;-47
2022/05/16 01:34:40;;;;;;;2.35;0.22;;;25.30;53.50;;;;;;5089887;28;20083;-46
2022/05/16 01:37:08;;;;;;;1.67;0.30;;;25.20;53.40;;;;;;5087775;28;20119;-49
2022/05/16 01:39:37;;;;;;;5.10;0.30;;;25.20;53.50;;;;;;5087953;28;20048;-48
2022/05/16 01:42:05;;;;;;;0.73;0.73;;;25.20;53.50;;;;;;5100228;28;20043;-52
2022/05/16 01:44:32;;;;;;;1.42;0.40;;;25.20;53.60;;;;;;5092539;28;20107;-51
2022/05/16 01:46:59;;;;;;;0.75;0.20;;;25.10;53.60;;;;;;5095200;28;20123;-48
2022/05/16 01:49:26;;;;;;;0.88;0.70;;;25.10;53.60;;;;;;5093768;28;20615;-50
2022/05/16 01:51:53;;;;;;;3.13;0.20;;;25.10;53.60;;;;;;5089541;28;20077;-52
2022/05/16 01:54:20;;;;;;;2.30;0.38;;;25.10;53.70;;;;;;5089006;28;20109;-50
2022/05/16 01:56:48;;;;;;;1.73;0.20;;;25.10;53.70;;;;;;5086439;28;20044;-50
2022/05/16 01:59:15;;;;;;;2.40;0.40;;;25.00;53.80;;;;;;5095894;28;20055;-50
2022/05/16 02:01:42;;;;;;;1.40;0.32;;;25.00;53.80;;;;;;5074456;28;20215;-50
2022/05/16 02:04:09;;;;;;;3.13;0.32;;;25.00;54.00;;;;;;5088895;28;20738;-52
2022/05/16 02:06:37;;;;;;;1.55;0.50;;;24.90;54.00;;;;;;5086118;28;20040;-48
2022/05/16 02:09:04;;;;;;;0.50;0.30;;;24.90;54.00;;;;;;5067232;28;20137;-50
2022/05/16 02:11:31;;;;;;;3.72;0.28;;;24.90;54.00;;;;;;5091846;28;20068;-47
2022/05/16 02:13:59;;;;;;;0.98;0.22;;;24.90;53.90;;;;;;5088114;28;20090;-47
2022/05/16 02:16:26;;;;;;;1.00;0.15;;;24.90;54.20;;;;;;5094149;28;20491;-49
2022/05/16 02:18:53;;;;;;;1.38;0.30;;;24.80;54.00;;;;;;5095317;28;20122;-46
2022/05/16 02:26:51;;;;;;;2.33;0.30;;;24.80;54.20;;;;;;5084185;28;20789;-48
2022/05/16 02:29:19;;;;;;;2.63;0.40;;;24.70;54.20;;;;;;5094492;28;20085;-49
2022/05/16 02:31:47;;;;;;;5.00;0.70;;;24.70;54.20;;;;;;5086550;28;20051;-50
2022/05/16 02:34:14;;;;;;;1.77;0.40;;;24.70;54.30;;;;;;5092983;28;20032;-47
2022/05/16 02:36:42;;;;;;;1.35;0.50;;;24.70;54.40;;;;;;5096603;28;20477;-47
2022/05/16 02:39:10;;;;;;;1.40;0.30;;;24.70;54.40;;;;;;5085677;28;20118;-48
2022/05/16 02:41:37;;;;;;;5.63;0.40;;;24.70;54.50;;;;;;5086555;28;20123;-52
2022/05/16 02:44:04;;;;;;;5.90;0.40;;;24.70;54.50;;;;;;5103001;28;20527;-52
2022/05/16 02:46:33;;;;;;;3.75;0.55;;;24.70;54.40;;;;;;5090402;28;20089;-50
2022/05/16 02:49:00;;;;;;;4.25;0.63;;;24.70;54.50;;;;;;5086004;28;20032;-50
2022/05/16 02:51:27;;;;;;;1.92;0.32;;;24.70;54.50;;;;;;5085887;28;20050;-49
2022/05/16 02:53:54;;;;;;;1.50;0.50;;;24.70;54.40;;;;;;5098890;28;20067;-50
2022/05/16 02:56:21;;;;;;;1.88;0.43;;;24.60;54.50;;;;;;5093804;28;20046;-49
2022/05/16 02:58:48;;;;;;;4.40;0.90;;;24.70;54.50;;;;;;5086427;28;20056;-48
2022/05/16 03:01:16;;;;;;;5.68;1.20;;;24.70;54.50;;;;;;5092307;28;20052;-50
2022/05/16 03:03:44;;;;;;;2.60;1.40;;;24.70;54.60;;;;;;5096561;28;20236;-49
2022/05/16 03:06:12;;;;;;;3.28;1.35;;;24.70;54.60;;;;;;5085807;28;20037;-49
2022/05/16 03:08:39;;;;;;;1.98;1.20;;;24.70;54.60;;;;;;5086781;28;20106;-47
2022/05/16 03:11:07;;;;;;;2.10;0.63;;;24.70;54.70;;;;;;5103191;28;20089;-51
2022/05/16 03:13:34;;;;;;;3.05;0.40;;;24.60;54.80;;;;;;5098694;28;20128;-47
2022/05/16 03:16:02;;;;;;;4.40;0.80;;;24.60;54.80;;;;;;5093975;28;20139;-49
2022/05/16 03:18:30;;;;;;;4.05;0.68;;;24.60;54.80;;;;;;5097509;28;20063;-49
2022/05/16 03:20:59;;;;;;;1.45;0.90;;;24.60;54.90;;;;;;5077851;28;20068;-53
2022/05/16 03:23:26;;;;;;;9.20;1.88;;;24.60;55.00;;;;;;5084486;28;20059;-49
2022/05/16 03:25:54;;;;;;;5.18;1.02;;;24.60;55.10;;;;;;5084993;28;20047;-51
2022/05/16 03:28:21;;;;;;;9.93;0.82;;;24.60;55.00;;;;;;5088700;28;20062;-49
2022/05/16 03:30:49;;;;;;;1.92;0.45;;;24.60;55.30;;;;;;5080392;28;20039;-50
2022/05/16 03:33:16;;;;;;;6.75;0.50;;;24.60;55.90;;;;;;5078068;28;20044;-52
2022/05/16 03:35:43;;;;;;;4.60;1.55;;;24.60;55.40;;;;;;5083875;28;20054;-53
2022/05/16 03:40:41;;;;;;;1.35;0.82;;;24.60;55.60;;;;;;5101760;28;20071;-50
2022/05/16 03:40:58;;;;;;;4.90;1.08;;;24.60;55.70;;;;;;5092436;28;20050;-50
2022/05/16 03:43:25;;;;;;;1.42;1.17;;;24.60;55.80;;;;;;5084387;28;20070;-51
2022/05/16 03:45:53;;;;;;;3.75;0.98;;;24.60;55.70;;;;;;5090069;28;20044;-51
2022/05/16 03:48:20;;;;;;;2.22;1.05;;;24.60;55.70;;;;;;5098067;28;20077;-50
2022/05/16 03:50:47;;;;;;;3.80;1.23;;;24.60;55.50;;;;;;5085899;28;20106;-49
2022/05/16 03:53:15;;;;;;;4.45;1.05;;;24.60;55.40;;;;;;5087893;28;20040;-52
2022/05/16 03:55:42;;;;;;;4.13;0.98;;;24.60;55.50;;;;;;5094005;28;20144;-53
2022/05/16 03:58:09;;;;;;;9.07;1.63;;;24.60;55.50;;;;;;5092214;28;20028;-50
2022/05/16 04:00:36;;;;;;;7.63;1.08;;;24.60;55.40;;;;;;5081607;28;20125;-51
2022/05/16 04:03:04;;;;;;;7.78;1.60;;;24.60;55.40;;;;;;5083318;28;20042;-52
2022/05/16 04:05:31;;;;;;;8.40;1.98;;;24.60;55.40;;;;;;5091376;28;20076;-50
2022/05/16 04:07:58;;;;;;;1.98;1.20;;;24.60;55.40;;;;;;5088573;28;20040;-48
2022/05/16 04:10:26;;;;;;;2.80;1.05;;;24.60;55.50;;;;;;5090500;28;20626;-50
2022/05/16 04:12:54;;;;;;;2.85;1.27;;;24.60;55.50;;;;;;5086964;28;20042;-51
2022/05/16 04:15:22;;;;;;;5.10;2.10;;;24.60;55.40;;;;;;5097647;28;20043;-54
2022/05/16 04:17:49;;;;;;;4.28;1.70;;;24.60;55.40;;;;;;5086403;28;20620;-51
2022/05/16 04:20:18;;;;;;;4.63;1.77;;;24.50;55.40;;;;;;5088146;28;20051;-56
2022/05/16 04:22:46;;;;;;;6.47;1.58;;;24.50;55.40;;;;;;5077075;28;20047;-55
2022/05/16 04:25:20;;;;;;;5.15;1.77;;;24.50;55.40;;;;;;5083838;28;20113;-55
2022/05/16 04:27:48;;;;;;;10.73;2.00;;;24.50;55.40;;;;;;5089278;28;20048;-50
2022/05/16 04:30:16;;;;;;;4.90;2.08;;;24.50;55.50;;;;;;5083095;28;20408;-53
2022/05/16 04:32:43;;;;;;;5.25;1.27;;;24.50;55.50;;;;;;5098923;28;20040;-55
2022/05/16 04:35:10;;;;;;;7.32;1.77;;;24.50;55.50;;;;;;5091080;28;20127;-51
2022/05/16 04:37:37;;;;;;;4.85;2.08;;;24.50;55.60;;;;;;5088595;28;20102;-54
2022/05/16 04:40:08;;;;;;;1.88;1.10;;;24.50;55.60;;;;;;5088406;28;20040;-55
2022/05/16 04:42:40;;;;;;;6.00;3.03;;;24.40;55.70;;;;;;5096442;28;20054;-55
2022/05/16 04:45:12;;;;;;;5.05;1.77;;;24.40;55.60;;;;;;5091395;28;20039;-52
2022/05/16 04:47:39;;;;;;;2.80;1.33;;;24.40;55.70;;;;;;5087674;28;20731;-48
2022/05/16 04:50:08;;;;;;;8.27;1.63;;;24.40;55.70;;;;;;5104940;28;20051;-51
2022/05/16 04:52:36;;;;;;;7.28;2.25;;;24.40;55.80;;;;;;5092074;28;20052;-48
2022/05/16 04:55:03;;;;;;;6.05;1.27;;;24.40;55.70;;;;;;5093202;28;20522;-51
2022/05/16 04:57:31;;;;;;;8.90;2.88;;;24.40;55.70;;;;;;5087083;28;20123;-50
2022/05/16 04:59:58;;;;;;;3.65;1.85;;;24.40;55.70;;;;;;5100795;28;20078;-52
2022/05/16 05:02:26;;;;;;;5.25;1.90;;;24.40;55.70;;;;;;5090658;28;20126;-56
2022/05/16 05:04:54;;;;;;;5.50;2.03;;;24.40;55.70;;;;;;5079390;28;20052;-56
2022/05/16 05:07:21;;;;;;;5.80;2.90;;;24.40;55.70;;;;;;5094298;28;20049;-56
2022/05/16 05:15:19;;;;;;;8.30;3.20;;;24.40;55.80;;;;;;5084257;28;20036;-57
2022/05/16 05:17:47;;;;;;;5.75;2.05;;;24.40;55.80;;;;;;5090913;28;20496;-55
2022/05/16 05:20:15;;;;;;;4.15;2.25;;;24.40;55.70;;;;;;5091734;28;20058;-55
2022/05/16 05:22:44;;;;;;;4.65;1.90;;;24.40;55.70;;;;;;5089730;28;20130;-55
2022/05/16 05:25:13;;;;;;;8.07;2.72;;;24.40;55.70;;;;;;5075470;28;20664;-55
2022/05/16 05:27:41;;;;;;;5.25;2.05;;;24.30;55.70;;;;;;5088137;28;20592;-52
2022/05/16 05:30:10;;;;;;;3.80;2.10;;;24.40;55.70;;;;;;5087853;28;20389;-55
2022/05/16 05:32:37;;;;;;;5.70;3.30;;;24.40;55.70;;;;;;5087398;28;20059;-55
2022/05/16 05:35:07;;;;;;;5.72;2.70;;;24.30;56.20;;;;;;5104514;28;20042;-57
2022/05/16 05:37:35;;;;;;;5.90;1.67;;;24.40;55.70;;;;;;5089135;28;20432;-56
2022/05/16 05:40:03;;;;;;;7.75;3.20;;;24.30;55.70;;;;;;5092978;28;20036;-56
2022/05/16 05:42:31;;;;;;;6.93;2.47;;;24.30;55.60;;;;;;5086448;28;20040;-52
2022/05/16 05:44:59;;;;;;;6.90;2.38;;;24.30;55.70;;;;;;5100402;28;20047;-55
2022/05/16 05:47:27;;;;;;;3.25;2.38;;;24.30;55.60;;;;;;5092389;28;20048;-53
2022/05/16 05:49:55;;;;;;;7.32;2.50;;;24.30;55.60;;;;;;5094163;28;20048;-53
2022/05/16 05:52:24;;;;;;;6.75;3.08;;;24.30;55.60;;;;;;5093193;28;20059;-54
2022/05/16 05:54:51;;;;;;;7.03;3.25;;;24.30;55.60;;;;;;5096052;28;20127;-51
2022/05/16 05:57:18;;;;;;;8.13;3.75;;;24.20;55.60;;;;;;5090819;28;20473;-56
2022/05/16 05:59:45;;;;;;;10.38;3.40;;;24.20;55.60;;;;;;5086031;28;20041;-53
2022/05/16 06:02:14;;;;;;;2.78;2.55;;;24.20;55.60;;;;;;5104845;28;20439;-47
2022/05/16 06:04:42;;;;;;;6.70;3.80;;;24.20;55.60;;;;;;5096829;28;20593;-50
2022/05/16 06:07:09;;;;;;;9.13;2.92;;;24.10;55.70;;;;;;5095809;28;20044;-51
2022/05/16 06:09:38;;;;;;;2.90;2.22;;;24.10;55.70;;;;;;5088194;28;20065;-52
2022/05/16 06:12:06;;;;;;;3.03;1.75;;;24.10;55.60;;;;;;5070937;28;20044;-52
2022/05/16 06:14:34;;;;;;;9.52;3.00;;;24.10;55.60;;;;;;5090730;28;20039;-53
2022/05/16 06:17:01;;;;;;;10.27;3.33;;;24.10;55.50;;;;;;5102635;28;20075;-50
2022/05/16 06:19:28;;;;;;;5.43;3.17;;;24.10;55.50;;;;;;5086223;28;20664;-48
2022/05/16 06:21:55;;;;;;;6.93;2.58;;;24.10;55.60;;;;;;5091270;28;20131;-51
2022/05/16 06:27:09;;;;;;;7.72;2.00;;;24.10;55.50;;;;;;5088273;28;20051;-49
2022/05/16 06:29:36;;;;;;;5.80;2.42;;;24.10;55.50;;;;;;5088677;28;20101;-49
2022/05/16 06:32:04;;;;;;;6.10;3.17;;;24.10;55.40;;;;;;5091742;28;20499;-53
2022/05/16 06:34:31;;;;;;;5.78;3.13;;;24.10;55.30;;;;;;5086972;28;20047;-49
2022/05/16 06:36:58;;;;;;;10.48;3.25;;;24.00;55.30;;;;;;5083331;28;20080;-48
2022/05/16 06:39:25;;;;;;;6.88;2.75;;;24.00;55.30;;;;;;5069299;28;20039;-53
2022/05/16 06:41:52;;;;;;;5.82;2.75;;;24.10;55.40;;;;;;5087829;28;20059;-48
2022/05/16 06:44:21;;;;;;;4.18;2.70;;;24.10;55.40;;;;;;5105003;28;20089;-51
2022/05/16 06:46:48;;;;;;;6.53;3.13;;;24.10;55.30;;;;;;5086814;28;20052;-51
2022/05/16 06:49:16;;;;;;;2.13;2.00;;;24.10;55.30;;;;;;5087268;28;20131;-53
2022/05/16 06:51:43;;;;;;;6.85;2.63;;;24.10;55.20;;;;;;5074645;28;20508;-55
2022/05/16 06:54:10;;;;;;;7.97;3.00;;;24.10;55.50;;;;;;5092761;28;20119;-53
2022/05/16 06:56:37;;;;;;;4.50;2.10;;;24.10;55.80;;;;;;5086779;28;20132;-54
2022/05/16 06:59:04;;;;;;;3.25;2.30;;;24.10;55.80;;;;;;5091290;28;20040;-48
2022/05/16 07:01:34;;;;;;;52.50;6.50;;;24.10;55.70;;;;;;5089773;28;20616;-58
2022/05/16 07:04:01;;;;;;;9.15;2.50;;;24.20;57.70;;;;;;5085208;28;20516;-55
2022/05/16 07:06:28;;;;;;;22.08;2.85;;;24.30;58.70;;;;;;5080536;28;20476;-52
2022/05/16 07:08:56;;;;;;;6.53;1.90;;;24.40;59.30;;;;;;5084868;28;20841;-51
2022/05/16 07:11:23;;;;;;;10.07;3.13;;;24.50;59.40;;;;;;5103881;28;20040;-52
2022/05/16 07:13:51;;;;;;;10.25;2.80;;;24.60;59.30;;;;;;5090434;28;20043;-52
2022/05/16 07:16:18;;;;;;;9.90;2.22;;;24.80;59.10;;;;;;5083875;28;20043;-54
2022/05/16 07:18:47;;;;;;;6.72;1.98;;;24.90;58.90;;;;;;5086026;28;20127;-51
2022/05/16 07:21:14;;;;;;;3.97;1.42;;;25.00;58.70;;;;;;5086182;28;20085;-50
2022/05/16 07:23:41;;;;;;;5.88;2.42;;;25.20;58.50;;;;;;5086350;28;20040;-54
2022/05/16 07:28:54;;;;;;;2.85;1.80;;;25.40;58.00;;;;;;5100303;28;20195;-48
2022/05/16 07:31:21;;;;;;;7.00;1.45;;;25.50;57.70;;;;;;5090690;28;20058;-51
2022/05/16 07:33:50;;;;;;;4.72;2.17;;;25.50;57.40;;;;;;5083805;28;20062;-50
2022/05/16 07:36:17;;;;;;;4.85;1.30;;;25.60;57.80;;;;;;5084986;28;20127;-51
2022/05/16 07:38:44;;;;;;;3.17;2.45;;;25.70;57.00;;;;;;5096481;28;20051;-51
2022/05/16 07:41:12;;;;;;;2.95;0.90;;;25.80;56.80;;;;;;5092322;28;20056;-53
2022/05/16 07:43:40;;;;;;;5.53;1.63;;;25.80;56.50;;;;;;5082752;28;20135;-50
2022/05/16 07:46:07;;;;;;;5.85;1.52;;;25.90;56.30;;;;;;5090932;28;20039;-48
2022/05/16 07:48:35;;;;;;;1.55;1.38;;;26.00;56.10;;;;;;5096612;28;20039;-53
2022/05/16 07:51:04;;;;;;;3.58;0.98;;;26.00;55.80;;;;;;5085285;28;20044;-52
2022/05/16 07:53:32;;;;;;;5.32;1.00;;;26.10;55.60;;;;;;5089066;28;20043;-54
2022/05/16 07:56:00;;;;;;;6.30;1.05;;;26.20;55.40;;;;;;5100489;28;20043;-54
2022/05/16 07:58:27;;;;;;;5.03;1.23;;;26.30;55.20;;;;;;5092770;28;20405;-50
2022/05/16 08:00:56;;;;;;;1.63;1.20;;;26.30;54.90;;;;;;5088372;28;20044;-51
2022/05/16 08:03:24;;;;;;;4.97;1.15;;;26.40;54.70;;;;;;5084910;28;20056;-54
2022/05/16 08:05:52;;;;;;;2.30;1.33;;;26.40;54.40;;;;;;5083524;28;20044;-53
2022/05/16 08:11:06;;;;;;;0.88;0.57;;;26.50;54.00;;;;;;5083068;28;20056;-51
2022/05/16 08:13:33;;;;;;;2.97;0.73;;;26.60;53.90;;;;;;5092968;28;20044;-51
2022/05/16 08:16:01;;;;;;;1.88;0.93;;;26.60;53.60;;;;;;5093311;28;20043;-54
2022/05/16 08:18:28;;;;;;;1.42;0.80;;;26.70;53.40;;;;;;5086440;28;20053;-53
2022/05/16 08:20:55;;;;;;;3.28;0.75;;;26.70;53.10;;;;;;5084394;28;20580;-51
2022/05/16 08:23:27;;;;;;;2.45;1.20;;;26.80;53.00;;;;;;5104299;28;20102;-52
2022/05/16 08:25:55;;;;;;;2.15;1.25;;;26.80;52.80;;;;;;5088692;28;20502;-54
2022/05/16 08:28:23;;;;;;;3.55;0.98;;;26.90;52.60;;;;;;5086636;28;20038;-50
2022/05/16 08:30:51;;;;;;;1.15;0.93;;;26.90;52.50;;;;;;5087447;28;20035;-47
2022/05/16 08:33:19;;;;;;;2.88;0.52;;;26.90;52.30;;;;;;5097723;28;20044;-49
2022/05/16 08:39:52;;;;;;;2.08;1.17;;;26.90;52.20;;;;;;5084436;28;20125;-53
2022/05/16 08:41:24;;;;;;;;;;;27.00;52.10;;;;;;5099883;28;20058;-51
2022/05/16 08:43:55;;;;;;;2.00;0.75;;;27.00;52.10;;;;;;5089007;28;20434;-53
2022/05/16 08:46:34;;;;;;;0.90;0.68;;;27.00;52.00;;;;;;5087311;28;20044;-52
2022/05/16 08:49:11;;;;;;;3.25;1.38;;;27.00;51.70;;;;;;5075603;28;20085;-53
2022/05/16 08:51:42;;;;;;;2.58;1.10;;;27.10;51.60;;;;;;5095134;28;20047;-51
2022/05/16 08:54:15;;;;;;;3.70;0.68;;;27.10;51.50;;;;;;5085218;28;20120;-52
2022/05/16 08:56:46;;;;;;;3.25;0.57;;;27.10;51.30;;;;;;5069769;28;20351;-51
2022/05/16 08:59:16;;;;;;;2.72;0.85;;;27.10;51.30;;;;;;5102294;28;20519;-51
2022/05/16 09:01:51;;;;;;;0.40;0.40;;;27.10;51.20;;;;;;5086797;28;20451;-52
2022/05/16 09:04:25;;;;;;;1.58;0.70;;;27.10;51.10;;;;;;5087113;28;20036;-53
2022/05/16 09:06:58;;;;;;;1.17;0.43;;;27.20;51.10;;;;;;5087082;28;20120;-51
2022/05/16 09:09:41;;;;;;;1.23;1.15;;;27.20;51.10;;;;;;5092844;28;20044;-53
2022/05/16 09:12:14;;;;;;;4.30;1.65;;;27.20;51.60;;;;;;5084442;28;20036;-53
2022/05/16 09:14:56;;;;;;;1.23;0.43;;;27.20;50.90;;;;;;5083011;28;20040;-54
2022/05/16 09:17:34;;;;;;;2.67;0.60;;;27.20;50.80;;;;;;5099052;28;20412;-53
2022/05/16 09:20:22;;;;;;;3.30;1.40;;;27.20;50.80;;;;;;5091463;28;20512;-50
2022/05/16 09:22:56;;;;;;;1.17;0.52;;;27.20;50.70;;;;;;5086754;28;20091;-53
2022/05/16 09:25:30;;;;;;;1.23;0.73;;;27.20;50.60;;;;;;5090738;28;20590;-51
2022/05/16 09:30:49;;;;;;;2.50;0.77;;;27.30;50.50;;;;;;5093235;28;20118;-55
2022/05/16 09:33:21;;;;;;;5.85;0.50;;;27.30;50.30;;;;;;5088083;28;20082;-54
2022/05/16 09:35:55;;;;;;;1.00;0.45;;;27.40;50.20;;;;;;5102237;28;20051;-54
2022/05/16 09:38:22;;;;;;;1.35;0.82;;;27.40;50.60;;;;;;5094394;28;20492;-53
2022/05/16 09:41:09;;;;;;;1.55;0.40;;;27.40;49.90;;;;;;5091140;28;20036;-53
2022/05/16 09:43:42;;;;;;;1.25;0.45;;;27.40;49.60;;;;;;5096237;28;20047;-53
2022/05/16 09:46:27;;;;;;;2.65;1.05;;;27.40;49.60;;;;;;5094631;28;20036;-48
2022/05/16 09:49:04;;;;;;;1.17;1.07;;;27.50;49.50;;;;;;5091650;28;20051;-53
2022/05/16 09:51:40;;;;;;;0.43;0.43;;;27.50;49.50;;;;;;5071442;28;20400;-54
2022/05/16 09:54:14;;;;;;;2.00;0.43;;;27.50;49.40;;;;;;5100077;28;20036;-46
2022/05/16 09:57:03;;;;;;;1.63;0.20;;;27.50;49.30;;;;;;5090257;28;20059;-50
2022/05/16 09:59:36;;;;;;;1.35;1.20;;;27.60;49.20;;;;;;5092975;28;20504;-48
2022/05/16 10:02:15;;;;;;;3.30;0.93;;;27.50;49.10;;;;;;5088615;28;20456;-50
2022/05/16 10:04:45;;;;;;;2.45;0.38;;;27.60;49.00;;;;;;5089239;28;20115;-47
2022/05/16 10:07:12;;;;;;;3.13;0.65;;;27.60;49.00;;;;;;5073678;28;20118;-50
2022/05/16 10:09:44;;;;;;;1.80;0.40;;;27.60;48.90;;;;;;5087821;28;20044;-52
2022/05/16 10:12:20;;;;;;;0.63;0.40;;;27.60;48.80;;;;;;5100243;28;20047;-47
2022/05/16 10:14:48;;;;;;;1.15;0.57;;;27.60;48.70;;;;;;5088841;28;20454;-49
2022/05/16 10:17:26;;;;;;;1.30;0.30;;;27.60;48.70;;;;;;5090327;28;20036;-51
2022/05/16 10:19:59;;;;;;;1.02;0.30;;;27.70;48.70;;;;;;5100843;28;20138;-54
2022/05/16 10:22:27;;;;;;;0.65;0.65;;;27.70;48.70;;;;;;5091582;28;20040;-52
2022/05/16 10:24:57;;;;;;;0.40;0.35;;;27.70;48.70;;;;;;5085743;28;20462;-49
2022/05/16 10:27:30;;;;;;;1.63;0.30;;;27.70;48.70;;;;;;5086447;28;20123;-50
2022/05/16 10:30:00;;;;;;;0.28;0.28;;;27.70;48.60;;;;;;5099660;28;20567;-51
2022/05/16 10:35:27;;;;;;;1.02;0.80;;;27.80;48.50;;;;;;5087991;28;20048;-52
2022/05/16 10:37:58;;;;;;;1.35;0.55;;;27.80;48.50;;;;;;5100201;28;20481;-51
2022/05/16 10:40:30;;;;;;;5.70;0.75;;;27.80;48.40;;;;;;5090292;28;20033;-51
2022/05/16 10:43:13;;;;;;;0.98;0.60;;;27.90;48.50;;;;;;5085590;28;20513;-48
2022/05/16 10:45:50;;;;;;;1.40;0.22;;;27.90;48.40;;;;;;5081568;28;20440;-49
2022/05/16 10:48:25;;;;;;;1.40;0.82;;;28.00;48.40;;;;;;5091360;28;20515;-50
2022/05/16 10:50:58;;;;;;;0.47;0.30;;;28.00;48.20;;;;;;5064708;28;20040;-52
2022/05/16 10:53:31;;;;;;;0.32;0.32;;;28.10;48.20;;;;;;5086381;28;20044;-49
2022/05/16 10:56:04;;;;;;;1.20;0.32;;;28.10;48.00;;;;;;5100240;28;20043;-52
2022/05/16 10:58:43;;;;;;;0.82;0.38;;;28.10;48.00;;;;;;5075481;28;20083;-51
2022/05/16 11:01:17;;;;;;;1.13;0.30;;;28.10;47.90;;;;;;5079925;28;20044;-53
2022/05/16 11:04:13;;;;;;;1.67;0.50;;;28.10;47.90;;;;;;5086993;28;20087;-50
2022/05/16 11:06:56;;;;;;;;;;;28.20;47.80;;;;;;5096009;28;20127;-53
2022/05/16 11:09:31;;;;;;;0.70;0.40;;;28.20;47.90;;;;;;5077966;28;19928;-50
2022/05/16 11:12:05;;;;;;;0.38;0.30;;;28.20;47.80;;;;;;5079979;28;20521;-52
2022/05/16 11:14:41;;;;;;;1.52;0.30;;;28.20;47.60;;;;;;5103224;28;20423;-51
2022/05/16 11:17:14;;;;;;;0.80;0.47;;;28.30;47.60;;;;;;5092146;28;20060;-54
2022/05/16 11:19:51;;;;;;;0.38;0.38;;;28.30;47.50;;;;;;5091759;28;20158;-49
2022/05/16 11:22:26;;;;;;;0.45;0.30;;;28.30;47.40;;;;;;5092039;28;20500;-50
2022/05/16 11:25:01;;;;;;;1.02;0.57;;;28.40;47.50;;;;;;5094841;28;20040;-52
2022/05/16 11:27:35;;;;;;;1.75;0.30;;;28.40;47.30;;;;;;5091494;28;20044;-52
2022/05/16 11:30:13;;;;;;;1.00;0.57;;;28.40;47.20;;;;;;5084384;28;20051;-52
2022/05/16 11:33:06;;;;;;;0.73;0.28;;;28.40;47.10;;;;;;5100602;28;20043;-55
2022/05/16 11:35:40;;;;;;;0.45;0.38;;;28.40;46.90;;;;;;5081836;28;20173;-53
2022/05/16 11:38:18;;;;;;;0.98;0.38;;;28.50;47.00;;;;;;5091893;28;20492;-51
2022/05/16 11:40:51;;;;;;;1.65;0.40;;;28.50;46.90;;;;;;5081166;28;20092;-52
2022/05/16 11:43:25;;;;;;;0.95;0.20;;;28.50;46.90;;;;;;5091366;28;20043;-49
2022/05/16 11:46:23;;;;;;;1.00;0.43;;;28.60;46.90;;;;;;5090719;28;20044;-51
2022/05/16 11:49:17;;;;;;;1.35;0.68;;;28.60;46.70;;;;;;5078649;28;20043;-50
2022/05/16 11:51:54;;;;;;;0.80;0.30;;;28.70;46.80;;;;;;5095121;28;20040;-49
2022/05/16 11:54:25;;;;;;;1.98;0.20;;;28.70;46.70;;;;;;5083288;28;20032;-50
2022/05/16 12:02:47;;;;;;;2.50;0.25;;;28.80;46.40;;;;;;5084697;28;20044;-49
2022/05/16 12:05:32;;;;;;;0.77;0.52;;;28.80;46.40;;;;;;5091828;28;20043;-51
2022/05/16 12:08:14;;;;;;;2.17;0.43;;;28.90;46.40;;;;;;5100099;28;20039;-53
2022/05/16 12:10:56;;;;;;;0.55;0.20;;;28.90;46.40;;;;;;5087553;28;20074;-52
2022/05/16 12:13:27;;;;;;;0.77;0.40;;;28.90;46.30;;;;;;5089957;28;20036;-53
2022/05/16 12:16:18;;;;;;;0.98;0.20;;;29.00;46.30;;;;;;5087285;28;20036;-53
2022/05/16 12:18:49;;;;;;;0.40;0.22;;;29.00;46.10;;;;;;5094900;28;20423;-53
2022/05/16 12:21:28;;;;;;;0.40;0.20;;;29.00;46.00;;;;;;5088334;28;20504;-50
2022/05/16 12:23:59;;;;;;;0.20;0.10;;;29.10;46.00;;;;;;5078140;28;20421;-51
2022/05/16 12:26:58;;;;;;;0.88;0.30;;;29.10;45.90;;;;;;5102629;28;20815;-48
2022/05/16 12:29:32;;;;;;;0.65;0.30;;;29.20;45.90;;;;;;5087040;28;20043;-49
2022/05/16 12:32:00;;;;;;;1.48;0.40;;;29.20;45.80;;;;;;5091429;28;20048;-48
2022/05/16 12:34:50;;;;;;;0.85;0.50;;;29.20;45.80;;;;;;5087843;28;20040;-51
2022/05/16 12:37:20;;;;;;;0.50;0.20;;;29.30;45.70;;;;;;5082069;28;20032;-53
2022/05/16 12:39:59;;;;;;;2.33;0.50;;;29.30;45.60;;;;;;5089049;28;20482;-53
2022/05/16 12:43:02;;;;;;;1.17;0.40;;;29.40;45.60;;;;;;5083968;28;20036;-51
2022/05/16 12:46:13;;;;;;;0.40;0.20;;;29.50;45.50;;;;;;5083210;28;20096;-52
2022/05/16 12:49:21;;;;;;;3.10;0.52;;;29.50;45.40;;;;;;5023863;28;20391;-52
2022/05/16 12:51:56;;;;;;;0.40;0.15;;;29.50;45.40;;;;;;5019977;28;20068;-52
2022/05/16 12:55:08;;;;;;;0.90;0.35;;;29.50;45.30;;;;;;5034413;28;20080;-52
2022/05/16 12:57:57;;;;;;;1.95;0.20;;;29.50;45.20;;;;;;5022503;28;20094;-50
2022/05/16 13:00:28;;;;;;;3.47;0.52;;;29.50;45.10;;;;;;5025656;28;20052;-50
2022/05/16 13:03:14;;;;;;;2.75;0.25;;;29.60;45.10;;;;;;5017973;28;20410;-50
2022/05/16 13:05:45;;;;;;;0.20;0.20;;;29.60;44.90;;;;;;5032009;28;20045;-48
2022/05/16 13:08:26;;;;;;;0.50;0.50;;;29.60;45.50;;;;;;5038821;28;20088;-52
2022/05/16 13:11:04;;;;;;;0.60;0.10;;;29.60;44.80;;;;;;5042794;28;20083;-51
2022/05/16 13:13:48;;;;;;;0.30;0.10;;;29.60;44.80;;;;;;5033043;28;20068;-51
2022/05/16 13:16:22;;;;;;;1.10;0.30;;;29.70;44.70;;;;;;5036161;28;20123;-52
2022/05/16 13:18:58;;;;;;;0.30;0.10;;;29.70;44.70;;;;;;5028308;28;20088;-52
2022/05/16 13:21:36;;;;;;;1.17;0.65;;;29.70;44.70;;;;;;5026892;28;20116;-51
2022/05/16 13:24:12;;;;;;;0.63;0.13;;;29.70;44.60;;;;;;5087529;28;20040;-51
2022/05/16 13:29:26;;;;;;;0.20;0.20;;;29.70;44.50;;;;;;5103341;28;20055;-51
2022/05/16 13:31:56;;;;;;;0.85;0.45;;;29.70;44.50;;;;;;5092627;28;20386;-50
2022/05/16 13:34:32;;;;;;;1.58;0.20;;;29.60;44.40;;;;;;5093344;28;20036;-52
2022/05/16 13:37:02;;;;;;;1.10;0.20;;;29.70;44.40;;;;;;5090161;28;20109;-53
2022/05/16 13:39:35;;;;;;;0.20;0.20;;;29.70;44.40;;;;;;5100317;28;20377;-52
2022/05/16 13:42:03;;;;;;;1.75;0.15;;;29.70;44.80;;;;;;5101209;28;20040;-48
2022/05/16 13:44:35;;;;;;;2.45;0.10;;;29.70;44.20;;;;;;5092061;28;20039;-49
2022/05/16 13:47:04;;;;;;;0.75;0.20;;;29.70;44.10;;;;;;5101415;28;20118;-51